x

Tillamook, Or - 85 Nm Wnw Of Tillamook, Or (46089) Wave Buoy

7:50pm - Mon 15th Sep 2014 All times are PDT. -7 hours from GMT.

  • Sig Wave height 3.0ft
  • Swell Direction
  • Peak Period 24s
  • Average Period 9s
  • Wind
    2mph
  • Sea Temp 65°f
  • Air Temp 64°f
  • Sea Pressure 1009.7mb
  • Tillamook, Or - 85 Nm Wnw Of Tillamook, Or
  • Tillamook, Or - 85 Nm Wnw Of Tillamook, Or

More Historic Weather Station data

Upgrade to MSW Pro to gain access to the past 30 days of data for over 8000 Wavebouys and Weather Stations around the globe.

Join Pro

Comparision Forecast

View Surf forecast
   
Mon 09/15 7:50pm 3ft 24s 9s 2
mph
1009.7mb 65f 64f
6:50pm 3ft 16s 8s 2 4 mph 1009.5mb 66f 65f
5:50pm 2.5ft 16s 8s 4
mph
1009.7mb 65f 65f
4:50pm 2.5ft 24s 8s 4
mph
1009.8mb 65f 65f
3:50pm 2.5ft 16s 7s 2 4 mph 1009.8mb 65f 65f
2:50pm 3ft 24s 7s 4
mph
1009.6mb 64f 65f
1:50pm 2.5ft 17s 6s 4
mph
1009.7mb 64f 64f
12:50pm 3ft 16s 6s 2 4 mph 1009.9mb 64f 64f
11:50am 2.5ft 13s 5s 2 4 mph 1010mb 63f 64f
10:50am 3ft 17s 6s 4
mph
1010.1mb 63f 63f
9:50am 3ft 17s 6s 4
mph
1009.8mb 63f 64f
8:50am 2.5ft 17s 7s 4 7 mph 1009.6mb 63f 63f
7:50am 3ft 17s 7s 4 7 mph 1009.9mb 63f 63f
6:50am 2.5ft 14s 6s 7
mph
1009.7mb 63f 63f
5:50am 3ft 19s 7s 7
mph
1009.7mb 62f 63f
4:50am 3ft 7s 7s 4 7 mph 1009.8mb 62f 63f
3:50am 3ft 7s 6s 4 7 mph 1010mb 62f 62f
2:50am 3ft 6s 6s 4 7 mph 1010.2mb 62f 62f
1:50am 3ft 7s 6s 4
mph
1010.5mb 63f 63f
12:50am 3ft 7s 6s 4 7 mph 1010.5mb 63f 63f
Sun 09/14 11:50pm 3.5ft 7s 6s 4 7 mph 1010.5mb 63f 63f
10:50pm 3ft 7s 5s 7
mph
1010.4mb 63f 63f
9:50pm 3ft 7s 6s 9 11 mph 1010.2mb 63f 63f
8:50pm 2.5ft 7s 6s 9 11 mph 1010.1mb 64f 63f
7:50pm 3ft 14s 6s 7 9 mph 1010mb 64f 63f
6:50pm 3ft 14s 6s 7
mph
1010.2mb 64f 63f
5:50pm 3ft 5s 5s 7 9 mph 1010.3mb 64f 63f
4:50pm 2.5ft 7s 5s 9 11 mph 1010.4mb 64f 63f
3:50pm 3.5ft 7s 5s 9 11 mph 1010.7mb 64f 63f
2:50pm 3.5ft 14s 5s 7 9 mph 1011mb 64f 63f
1:50pm 3.5ft 7s 5s 9 11 mph 1011.1mb 64f 63f
12:50pm 4ft 7s 5s 7 9 mph 1011.1mb 64f 63f
11:50am 4ft 7s 5s 9 13 mph 1011.1mb 63f 63f
10:50am 3.5ft 7s 5s 11 13 mph 1011.1mb 63f 62f
9:50am 4ft 6s 5s 11 13 mph 1011mb 63f 62f
8:50am 4ft 7s 5s 11 13 mph 1010.7mb 63f 62f
7:50am 4ft 8s 5s 11 16 mph 1010.5mb 63f 62f
6:50am 4ft 7s 5s 11 16 mph 1010.3mb 63f 62f
5:50am 3.5ft 7s 5s 11 13 mph 1010.3mb 63f 63f
4:50am 3.5ft 7s 5s 11 16 mph 1010.1mb 63f 63f
3:50am 4ft 8s 5s 11 16 mph 1010.3mb 63f 64f
2:50am 4ft 8s 5s 11 16 mph 1010.5mb 63f 63f
1:50am 4ft 7s 5s 11 16 mph 1010.7mb 63f 63f
12:50am 4.5ft 7s 5s 11 16 mph 1010.6mb 63f 64f
Sat 09/13 11:50pm 4.5ft 7s 5s 11 16 mph 1010.8mb 63f 63f
10:50pm 4.5ft 7s 5s 11 18 mph 1010.7mb 63f 64f
9:50pm 4.5ft 8s 5s 11 16 mph 1010.6mb 63f 64f
8:50pm 5ft 7s 6s 9 13 mph 1010.5mb 63f 64f
7:50pm 4.5ft 8s 6s 9 11 mph 1010.3mb 63f 65f
6:50pm 4.5ft 8s 6s 11 13 mph 1010.4mb 63f 65f
5:50pm 4.5ft 8s 5s 11 13 mph 1010.6mb 63f 64f
4:50pm 4.5ft 8s 6s 11 18 mph 1010.9mb 63f 64f
3:50pm 4.5ft 8s 5s 11 16 mph 1011.2mb 63f 64f
2:50pm 5ft 7s 6s 11 16 mph 1011.4mb 63f 63f
1:50pm 4.5ft 8s 6s 11 13 mph 1011.6mb 63f 63f
12:50pm 4.5ft 6s 5s 11 16 mph 1011.8mb 63f 63f
11:50am 4.5ft 7s 5s 11 13 mph 1012.1mb 62f 63f
10:50am 5ft 7s 6s 9 13 mph 1012.2mb 62f 63f
9:50am 5ft 7s 5s 11 16 mph 1012.3mb 62f 63f
8:50am 5ft 6s 5s 11 16 mph 1012.1mb 62f 63f
7:50am 5ft 8s 5s 11 16 mph 1012.1mb 62f 63f
6:50am 5ft 7s 5s 11 16 mph 1011.7mb 62f 63f
5:50am 5.5ft 6s 5s 11 18 mph 1011.8mb 62f 64f
4:50am 5.5ft 6s 5s 11 18 mph 1011.7mb 62f 63f
3:50am 5.5ft 6s 5s 13 18 mph 1012mb 62f 62f
2:50am 6ft 6s 5s 13 20 mph 1012.3mb 62f 62f
1:50am 5.5ft 6s 5s 13 18 mph 1012.7mb 62f 63f
12:50am 5ft 5s 5s 16 20 mph 1012.7mb 62f 63f
Fri 09/12 11:50pm 5ft 6s 5s 16 22 mph 1012.9mb 62f 63f
10:50pm 5ft 5s 5s 16 20 mph 1013mb 62f 63f
9:50pm 5ft 11s 5s 16 20 mph 1013.2mb 62f 63f
8:50pm 5ft 10s 5s 16 22 mph 1013.2mb 62f 63f
7:50pm 5ft 11s 5s 16 20 mph 1013.1mb 62f 63f
6:50pm 5ft 5s 5s 16 20 mph 1013.4mb 62f 63f
5:50pm 5ft 11s 5s 16 22 mph 1013.6mb 62f 62f
4:50pm 4.5ft 11s 5s 13 20 mph 1014.1mb 62f 63f
3:50pm 5ft 11s 5s 13 16 mph 1014.4mb 62f 62f
2:50pm 4.5ft 5s 5s 13 20 mph 1014.6mb 62f 63f
1:50pm 5ft 11s 5s 13 18 mph 1014.8mb 62f 63f
12:50pm 5ft 5s 5s 13 18 mph 1015.1mb 62f 63f
11:50am 5ft 11s 5s 16 20 mph 1015.5mb 62f 63f
10:50am 5ft 11s 5s 16 20 mph 1015.6mb 62f 63f
9:50am 5.5ft 6s 5s 16 22 mph 1015.6mb 62f 63f
8:50am 5.5ft 5s 5s 16 20 mph 1015.5mb 62f 63f
7:50am 5.5ft 6s 5s 16 25 mph 1015.5mb 62f 63f
6:50am 5ft 6s 5s 16 20 mph 1015.7mb 62f 63f
5:50am 6ft 6s 5s 16 22 mph 1015.6mb 62f 63f
4:50am 6ft 6s 5s 18 25 mph 1015.9mb 62f 62f